sensor_id;sensor_type;location;lat;lon;timestamp;pressure;altitude;pressure_sealevel;temperature;humidity
17230;BME280;8731;50.364;8.958;2023-12-28T00:00:18;99953.13;;;5.55;92.91
17230;BME280;8731;50.364;8.958;2023-12-28T00:04:40;99943.75;;;5.54;93.00
17230;BME280;8731;50.364;8.958;2023-12-28T00:09:04;99954.81;;;5.47;93.47
17230;BME280;8731;50.364;8.958;2023-12-28T00:13:28;99949.09;;;5.41;93.66
17230;BME280;8731;50.364;8.958;2023-12-28T00:17:50;99961.34;;;5.45;93.98
17230;BME280;8731;50.364;8.958;2023-12-28T00:22:13;99953.78;;;5.45;93.68
17230;BME280;8731;50.364;8.958;2023-12-28T00:26:36;99944.00;;;5.48;94.72
17230;BME280;8731;50.364;8.958;2023-12-28T00:31:01;99970.81;;;5.55;94.77
17230;BME280;8731;50.364;8.958;2023-12-28T00:35:23;99967.63;;;5.65;95.33
17230;BME280;8731;50.364;8.958;2023-12-28T00:39:46;99970.19;;;5.80;95.52
17230;BME280;8731;50.364;8.958;2023-12-28T00:44:11;99966.25;;;5.98;94.60
17230;BME280;8731;50.364;8.958;2023-12-28T00:48:35;99971.84;;;6.11;93.77
17230;BME280;8731;50.364;8.958;2023-12-28T00:52:57;99952.94;;;6.24;93.17
17230;BME280;8731;50.364;8.958;2023-12-28T00:57:20;99936.88;;;6.39;92.16
17230;BME280;8731;50.364;8.958;2023-12-28T01:01:42;99954.47;;;6.46;91.16
17230;BME280;8731;50.364;8.958;2023-12-28T01:06:06;99969.78;;;6.47;91.88
17230;BME280;8731;50.364;8.958;2023-12-28T01:10:29;99978.59;;;6.51;92.68
17230;BME280;8731;50.364;8.958;2023-12-28T01:14:51;99984.59;;;6.60;91.77
17230;BME280;8731;50.364;8.958;2023-12-28T01:19:14;99979.63;;;6.69;89.98
17230;BME280;8731;50.364;8.958;2023-12-28T01:23:38;99986.22;;;6.75;90.55
17230;BME280;8731;50.364;8.958;2023-12-28T01:28:01;99985.34;;;6.84;89.62
17230;BME280;8731;50.364;8.958;2023-12-28T01:32:23;99996.13;;;6.90;89.74
17230;BME280;8731;50.364;8.958;2023-12-28T01:36:46;100008.38;;;6.94;89.66
17230;BME280;8731;50.364;8.958;2023-12-28T01:41:11;99996.19;;;6.98;89.08
17230;BME280;8731;50.364;8.958;2023-12-28T01:45:35;100013.03;;;7.06;88.60
17230;BME280;8731;50.364;8.958;2023-12-28T01:49:59;100015.19;;;7.11;87.90
17230;BME280;8731;50.364;8.958;2023-12-28T01:54:22;100022.50;;;7.16;87.26
17230;BME280;8731;50.364;8.958;2023-12-28T01:58:48;100043.38;;;7.22;86.43
17230;BME280;8731;50.364;8.958;2023-12-28T02:03:12;100037.31;;;7.29;86.71
17230;BME280;8731;50.364;8.958;2023-12-28T02:07:36;100030.22;;;7.33;85.54
17230;BME280;8731;50.364;8.958;2023-12-28T02:11:59;100037.84;;;7.42;85.29
17230;BME280;8731;50.364;8.958;2023-12-28T02:16:26;100052.44;;;7.45;85.54
17230;BME280;8731;50.364;8.958;2023-12-28T02:20:54;100050.97;;;7.47;85.54
17230;BME280;8731;50.364;8.958;2023-12-28T02:25:20;100051.84;;;7.47;85.02
17230;BME280;8731;50.364;8.958;2023-12-28T02:29:43;100059.34;;;7.54;84.11
17230;BME280;8731;50.364;8.958;2023-12-28T02:34:09;100059.84;;;7.59;84.12
17230;BME280;8731;50.364;8.958;2023-12-28T02:38:38;100055.81;;;7.61;83.55
17230;BME280;8731;50.364;8.958;2023-12-28T02:43:06;100032.44;;;7.63;83.94
17230;BME280;8731;50.364;8.958;2023-12-28T02:47:31;100033.78;;;7.68;83.97
17230;BME280;8731;50.364;8.958;2023-12-28T02:51:53;100039.16;;;7.72;84.26
17230;BME280;8731;50.364;8.958;2023-12-28T02:56:16;100029.00;;;7.72;83.70
17230;BME280;8731;50.364;8.958;2023-12-28T03:00:40;100052.13;;;7.75;84.57
17230;BME280;8731;50.364;8.958;2023-12-28T03:05:05;100045.31;;;7.82;85.35
17230;BME280;8731;50.364;8.958;2023-12-28T03:09:29;100039.91;;;7.79;84.22
17230;BME280;8731;50.364;8.958;2023-12-28T03:13:52;100047.13;;;7.83;84.03
17230;BME280;8731;50.364;8.958;2023-12-28T03:18:16;100035.34;;;7.84;83.38
17230;BME280;8731;50.364;8.958;2023-12-28T03:22:38;100012.97;;;7.88;83.08
17230;BME280;8731;50.364;8.958;2023-12-28T03:27:01;100032.81;;;7.92;83.42
17230;BME280;8731;50.364;8.958;2023-12-28T03:31:24;100046.84;;;7.97;82.78
17230;BME280;8731;50.364;8.958;2023-12-28T03:35:47;100046.38;;;7.93;82.99
17230;BME280;8731;50.364;8.958;2023-12-28T03:40:11;100046.41;;;8.01;83.15
17230;BME280;8731;50.364;8.958;2023-12-28T03:44:34;100050.72;;;8.02;83.37
17230;BME280;8731;50.364;8.958;2023-12-28T03:48:57;100041.66;;;8.05;84.49
17230;BME280;8731;50.364;8.958;2023-12-28T03:53:23;100023.16;;;8.06;84.85
17230;BME280;8731;50.364;8.958;2023-12-28T03:57:45;100051.22;;;8.07;85.07
17230;BME280;8731;50.364;8.958;2023-12-28T04:02:08;100034.81;;;8.12;84.88
17230;BME280;8731;50.364;8.958;2023-12-28T04:06:30;100035.25;;;8.17;84.73
17230;BME280;8731;50.364;8.958;2023-12-28T04:10:54;100066.28;;;8.23;85.21
17230;BME280;8731;50.364;8.958;2023-12-28T04:15:16;100067.03;;;8.22;85.61
17230;BME280;8731;50.364;8.958;2023-12-28T04:19:39;100062.56;;;8.28;86.37
17230;BME280;8731;50.364;8.958;2023-12-28T04:24:01;100070.19;;;8.28;87.34
17230;BME280;8731;50.364;8.958;2023-12-28T04:28:26;100086.47;;;8.30;88.22
17230;BME280;8731;50.364;8.958;2023-12-28T04:32:49;100083.81;;;8.37;88.73
17230;BME280;8731;50.364;8.958;2023-12-28T04:37:11;100093.38;;;8.40;88.66
17230;BME280;8731;50.364;8.958;2023-12-28T04:41:34;100073.38;;;8.43;88.44
17230;BME280;8731;50.364;8.958;2023-12-28T04:46:02;100067.72;;;8.45;88.58
17230;BME280;8731;50.364;8.958;2023-12-28T04:50:25;100076.06;;;8.44;89.25
17230;BME280;8731;50.364;8.958;2023-12-28T04:54:48;100074.88;;;8.49;90.24
17230;BME280;8731;50.364;8.958;2023-12-28T04:59:11;100079.38;;;8.52;90.69
17230;BME280;8731;50.364;8.958;2023-12-28T05:03:35;100097.28;;;8.53;91.14
17230;BME280;8731;50.364;8.958;2023-12-28T05:07:57;100095.06;;;8.56;91.47
17230;BME280;8731;50.364;8.958;2023-12-28T05:12:21;100104.00;;;8.61;91.76
17230;BME280;8731;50.364;8.958;2023-12-28T05:16:44;100106.84;;;8.56;92.64
17230;BME280;8731;50.364;8.958;2023-12-28T05:21:08;100094.31;;;8.57;93.06
17230;BME280;8731;50.364;8.958;2023-12-28T05:25:30;100110.44;;;8.67;93.38
17230;BME280;8731;50.364;8.958;2023-12-28T05:29:53;100104.31;;;8.65;94.38
17230;BME280;8731;50.364;8.958;2023-12-28T05:34:16;100102.06;;;8.68;95.28
17230;BME280;8731;50.364;8.958;2023-12-28T05:38:40;100108.34;;;8.71;95.54
17230;BME280;8731;50.364;8.958;2023-12-28T05:43:02;100102.97;;;8.68;96.49
17230;BME280;8731;50.364;8.958;2023-12-28T05:47:25;100101.31;;;8.69;96.54
17230;BME280;8731;50.364;8.958;2023-12-28T05:51:48;100093.72;;;8.69;97.08
17230;BME280;8731;50.364;8.958;2023-12-28T05:56:13;100100.13;;;8.65;97.49
17230;BME280;8731;50.364;8.958;2023-12-28T06:00:36;100093.72;;;8.69;97.59
17230;BME280;8731;50.364;8.958;2023-12-28T06:04:59;100085.34;;;8.70;97.94
17230;BME280;8731;50.364;8.958;2023-12-28T06:09:21;100082.34;;;8.74;97.59
17230;BME280;8731;50.364;8.958;2023-12-28T06:13:47;100088.19;;;8.73;99.02
17230;BME280;8731;50.364;8.958;2023-12-28T06:18:09;100080.91;;;8.76;99.05
17230;BME280;8731;50.364;8.958;2023-12-28T06:22:32;100077.13;;;8.72;100.00
17230;BME280;8731;50.364;8.958;2023-12-28T06:26:54;100075.50;;;8.73;100.00
17230;BME280;8731;50.364;8.958;2023-12-28T06:31:18;100081.03;;;8.77;100.00
17230;BME280;8731;50.364;8.958;2023-12-28T06:35:41;100091.19;;;8.86;100.00
17230;BME280;8731;50.364;8.958;2023-12-28T06:40:05;100079.09;;;8.83;100.00
17230;BME280;8731;50.364;8.958;2023-12-28T06:44:29;100080.13;;;8.85;100.00
17230;BME280;8731;50.364;8.958;2023-12-28T06:48:54;100081.94;;;8.86;100.00
17230;BME280;8731;50.364;8.958;2023-12-28T06:53:19;100081.63;;;8.92;100.00
17230;BME280;8731;50.364;8.958;2023-12-28T06:57:42;100078.78;;;8.98;100.00
17230;BME280;8731;50.364;8.958;2023-12-28T07:02:04;100094.19;;;8.99;100.00
17230;BME280;8731;50.364;8.958;2023-12-28T07:06:31;100096.56;;;8.98;100.00
17230;BME280;8731;50.364;8.958;2023-12-28T07:10:53;100105.38;;;9.01;100.00
17230;BME280;8731;50.364;8.958;2023-12-28T07:15:17;100117.50;;;9.04;100.00
17230;BME280;8731;50.364;8.958;2023-12-28T07:19:39;100119.13;;;9.03;100.00
17230;BME280;8731;50.364;8.958;2023-12-28T07:24:04;100126.00;;;9.04;100.00
17230;BME280;8731;50.364;8.958;2023-12-28T07:28:26;100128.69;;;9.06;100.00
17230;BME280;8731;50.364;8.958;2023-12-28T07:32:49;100137.50;;;9.09;100.00
17230;BME280;8731;50.364;8.958;2023-12-28T07:37:12;100139.44;;;9.12;100.00
17230;BME280;8731;50.364;8.958;2023-12-28T07:41:36;100143.91;;;9.14;100.00
17230;BME280;8731;50.364;8.958;2023-12-28T07:45:59;100146.59;;;9.16;100.00
17230;BME280;8731;50.364;8.958;2023-12-28T07:50:22;100149.13;;;9.16;100.00
17230;BME280;8731;50.364;8.958;2023-12-28T07:54:44;100143.16;;;9.15;100.00
17230;BME280;8731;50.364;8.958;2023-12-28T07:59:08;100131.97;;;9.13;100.00
17230;BME280;8731;50.364;8.958;2023-12-28T08:03:31;100134.34;;;9.12;100.00
17230;BME280;8731;50.364;8.958;2023-12-28T08:07:53;100133.47;;;9.11;100.00
17230;BME280;8731;50.364;8.958;2023-12-28T08:12:16;100124.47;;;9.15;100.00
17230;BME280;8731;50.364;8.958;2023-12-28T08:16:39;100126.13;;;9.14;100.00
17230;BME280;8731;50.364;8.958;2023-12-28T08:21:02;100129.56;;;9.15;100.00
17230;BME280;8731;50.364;8.958;2023-12-28T08:25:25;100123.59;;;9.14;100.00
17230;BME280;8731;50.364;8.958;2023-12-28T08:29:47;100118.66;;;9.25;100.00
17230;BME280;8731;50.364;8.958;2023-12-28T08:34:11;100111.06;;;9.25;100.00
17230;BME280;8731;50.364;8.958;2023-12-28T08:38:33;100119.84;;;9.28;100.00
17230;BME280;8731;50.364;8.958;2023-12-28T08:42:56;100123.88;;;9.35;100.00
17230;BME280;8731;50.364;8.958;2023-12-28T08:47:18;100115.78;;;9.39;100.00
17230;BME280;8731;50.364;8.958;2023-12-28T08:51:44;100131.63;;;9.45;100.00
17230;BME280;8731;50.364;8.958;2023-12-28T08:56:15;100136.69;;;9.45;100.00
17230;BME280;8731;50.364;8.958;2023-12-28T09:00:39;100142.09;;;9.48;100.00
17230;BME280;8731;50.364;8.958;2023-12-28T09:05:05;100135.53;;;9.50;100.00
17230;BME280;8731;50.364;8.958;2023-12-28T09:09:30;100142.25;;;9.49;100.00
17230;BME280;8731;50.364;8.958;2023-12-28T09:13:52;100147.59;;;9.61;100.00
17230;BME280;8731;50.364;8.958;2023-12-28T09:18:14;100155.22;;;9.61;100.00
17230;BME280;8731;50.364;8.958;2023-12-28T09:22:37;100147.88;;;9.64;100.00
17230;BME280;8731;50.364;8.958;2023-12-28T09:27:01;100148.16;;;9.67;100.00
17230;BME280;8731;50.364;8.958;2023-12-28T09:31:23;100150.28;;;9.71;100.00
17230;BME280;8731;50.364;8.958;2023-12-28T09:35:46;100138.44;;;9.80;100.00
17230;BME280;8731;50.364;8.958;2023-12-28T09:40:11;100154.13;;;9.85;100.00
17230;BME280;8731;50.364;8.958;2023-12-28T09:44:38;100158.88;;;9.91;100.00
17230;BME280;8731;50.364;8.958;2023-12-28T09:49:03;100153.94;;;10.01;100.00
17230;BME280;8731;50.364;8.958;2023-12-28T09:53:32;100165.44;;;10.06;100.00
17230;BME280;8731;50.364;8.958;2023-12-28T09:57:54;100166.72;;;10.20;100.00
17230;BME280;8731;50.364;8.958;2023-12-28T10:02:23;100162.66;;;10.30;100.00
17230;BME280;8731;50.364;8.958;2023-12-28T10:06:45;100172.38;;;10.34;100.00
17230;BME280;8731;50.364;8.958;2023-12-28T10:11:09;100176.81;;;10.45;100.00
17230;BME280;8731;50.364;8.958;2023-12-28T10:15:32;100183.72;;;10.38;100.00
17230;BME280;8731;50.364;8.958;2023-12-28T10:19:58;100174.41;;;10.47;100.00
17230;BME280;8731;50.364;8.958;2023-12-28T10:24:24;100169.75;;;10.52;100.00
17230;BME280;8731;50.364;8.958;2023-12-28T10:28:47;100182.28;;;10.59;100.00
17230;BME280;8731;50.364;8.958;2023-12-28T10:33:10;100177.78;;;10.65;100.00
17230;BME280;8731;50.364;8.958;2023-12-28T10:37:55;100175.78;;;10.71;100.00
17230;BME280;8731;50.364;8.958;2023-12-28T10:42:28;100166.91;;;10.76;98.74
17230;BME280;8731;50.364;8.958;2023-12-28T10:46:55;100168.19;;;10.90;98.61
17230;BME280;8731;50.364;8.958;2023-12-28T10:51:25;100165.78;;;10.91;97.25
17230;BME280;8731;50.364;8.958;2023-12-28T10:56:02;100144.28;;;10.98;94.70
17230;BME280;8731;50.364;8.958;2023-12-28T11:00:36;100139.31;;;11.18;94.92
17230;BME280;8731;50.364;8.958;2023-12-28T11:05:04;100144.34;;;11.27;93.94
17230;BME280;8731;50.364;8.958;2023-12-28T11:09:30;100137.44;;;11.45;91.50
17230;BME280;8731;50.364;8.958;2023-12-28T11:13:55;100131.97;;;11.50;90.32
17230;BME280;8731;50.364;8.958;2023-12-28T11:18:18;100129.81;;;11.55;88.62
17230;BME280;8731;50.364;8.958;2023-12-28T11:22:42;100141.13;;;11.67;87.46
17230;BME280;8731;50.364;8.958;2023-12-28T11:27:05;100128.41;;;11.48;87.52
17230;BME280;8731;50.364;8.958;2023-12-28T11:31:33;100124.84;;;11.56;88.04
17230;BME280;8731;50.364;8.958;2023-12-28T11:35:57;100118.28;;;11.68;86.54
17230;BME280;8731;50.364;8.958;2023-12-28T11:40:21;100116.81;;;11.81;85.46
17230;BME280;8731;50.364;8.958;2023-12-28T11:44:44;100115.88;;;11.99;85.86
17230;BME280;8731;50.364;8.958;2023-12-28T11:49:09;100103.34;;;11.92;85.25
17230;BME280;8731;50.364;8.958;2023-12-28T11:53:31;100109.81;;;11.78;84.57
17230;BME280;8731;50.364;8.958;2023-12-28T11:57:55;100096.88;;;11.77;84.29
17230;BME280;8731;50.364;8.958;2023-12-28T12:02:18;100092.03;;;12.29;81.43
17230;BME280;8731;50.364;8.958;2023-12-28T12:06:44;100073.91;;;12.26;82.02
17230;BME280;8731;50.364;8.958;2023-12-28T12:11:17;100060.78;;;12.42;80.48
17230;BME280;8731;50.364;8.958;2023-12-28T12:15:41;100049.84;;;12.95;80.19
17230;BME280;8731;50.364;8.958;2023-12-28T12:20:04;100040.31;;;12.72;78.05
17230;BME280;8731;50.364;8.958;2023-12-28T12:24:28;100054.50;;;12.79;79.77
17230;BME280;8731;50.364;8.958;2023-12-28T12:28:55;100049.66;;;12.62;80.16
17230;BME280;8731;50.364;8.958;2023-12-28T12:33:18;100043.81;;;12.32;79.82
17230;BME280;8731;50.364;8.958;2023-12-28T12:37:41;100042.66;;;12.59;79.52
17230;BME280;8731;50.364;8.958;2023-12-28T12:42:12;100026.31;;;12.26;78.67
17230;BME280;8731;50.364;8.958;2023-12-28T12:46:35;100021.84;;;12.24;79.29
17230;BME280;8731;50.364;8.958;2023-12-28T12:51:03;100026.19;;;12.35;80.62
17230;BME280;8731;50.364;8.958;2023-12-28T12:55:28;100011.91;;;12.17;78.85
17230;BME280;8731;50.364;8.958;2023-12-28T12:59:56;100007.41;;;12.04;78.27
17230;BME280;8731;50.364;8.958;2023-12-28T13:04:19;100003.88;;;12.12;78.87
17230;BME280;8731;50.364;8.958;2023-12-28T13:08:42;100005.63;;;12.03;78.30
17230;BME280;8731;50.364;8.958;2023-12-28T13:13:06;100004.75;;;11.92;77.09
17230;BME280;8731;50.364;8.958;2023-12-28T13:17:30;100005.13;;;11.97;77.66
17230;BME280;8731;50.364;8.958;2023-12-28T13:21:54;100006.16;;;11.89;77.40
17230;BME280;8731;50.364;8.958;2023-12-28T13:26:17;100010.16;;;11.77;77.30
17230;BME280;8731;50.364;8.958;2023-12-28T13:30:40;100004.03;;;11.75;77.65
17230;BME280;8731;50.364;8.958;2023-12-28T13:35:07;100001.38;;;11.73;78.65
17230;BME280;8731;50.364;8.958;2023-12-28T13:39:29;100011.69;;;11.64;79.41
17230;BME280;8731;50.364;8.958;2023-12-28T13:43:58;100012.59;;;11.75;79.21
17230;BME280;8731;50.364;8.958;2023-12-28T13:48:24;100021.91;;;11.75;80.87
17230;BME280;8731;50.364;8.958;2023-12-28T13:52:48;100010.66;;;11.62;80.24
17230;BME280;8731;50.364;8.958;2023-12-28T13:57:10;100012.06;;;11.69;81.20
17230;BME280;8731;50.364;8.958;2023-12-28T14:01:32;100004.13;;;11.56;81.05
17230;BME280;8731;50.364;8.958;2023-12-28T14:05:55;100004.16;;;11.66;82.30
17230;BME280;8731;50.364;8.958;2023-12-28T14:10:20;100013.44;;;11.55;82.31
17230;BME280;8731;50.364;8.958;2023-12-28T14:14:43;100009.63;;;11.60;82.86
17230;BME280;8731;50.364;8.958;2023-12-28T14:19:05;100003.78;;;11.61;83.39
17230;BME280;8731;50.364;8.958;2023-12-28T14:23:28;99993.03;;;11.55;84.67
17230;BME280;8731;50.364;8.958;2023-12-28T14:27:56;100000.69;;;11.55;85.81
17230;BME280;8731;50.364;8.958;2023-12-28T14:38:21;100000.63;;;11.35;87.52
17230;BME280;8731;50.364;8.958;2023-12-28T14:42:44;99998.97;;;11.35;88.72
17230;BME280;8731;50.364;8.958;2023-12-28T14:47:08;99993.34;;;11.29;88.83
17230;BME280;8731;50.364;8.958;2023-12-28T14:51:31;99993.59;;;11.22;90.57
17230;BME280;8731;50.364;8.958;2023-12-28T14:55:54;99994.59;;;11.14;91.57
17230;BME280;8731;50.364;8.958;2023-12-28T15:00:18;99996.22;;;11.14;91.24
17230;BME280;8731;50.364;8.958;2023-12-28T15:04:42;99994.50;;;11.04;93.02
17230;BME280;8731;50.364;8.958;2023-12-28T15:09:06;99995.16;;;11.01;94.07
17230;BME280;8731;50.364;8.958;2023-12-28T15:13:30;99995.16;;;11.01;93.70
17230;BME280;8731;50.364;8.958;2023-12-28T15:17:53;99996.47;;;10.88;96.36
17230;BME280;8731;50.364;8.958;2023-12-28T15:22:18;99999.25;;;10.81;97.16
17230;BME280;8731;50.364;8.958;2023-12-28T15:26:41;100009.78;;;10.75;98.23
17230;BME280;8731;50.364;8.958;2023-12-28T15:31:04;100012.81;;;10.71;99.27
17230;BME280;8731;50.364;8.958;2023-12-28T15:35:29;100011.09;;;10.61;100.00
17230;BME280;8731;50.364;8.958;2023-12-28T15:39:53;100011.66;;;10.49;100.00
17230;BME280;8731;50.364;8.958;2023-12-28T15:44:15;100018.75;;;10.42;100.00
17230;BME280;8731;50.364;8.958;2023-12-28T15:48:41;100008.47;;;10.32;100.00
17230;BME280;8731;50.364;8.958;2023-12-28T15:53:03;100009.50;;;10.34;100.00
17230;BME280;8731;50.364;8.958;2023-12-28T15:57:27;100007.94;;;10.26;100.00
17230;BME280;8731;50.364;8.958;2023-12-28T16:01:49;100015.84;;;10.29;100.00
17230;BME280;8731;50.364;8.958;2023-12-28T16:06:12;100018.31;;;10.10;100.00
17230;BME280;8731;50.364;8.958;2023-12-28T16:10:36;100015.16;;;10.13;100.00
17230;BME280;8731;50.364;8.958;2023-12-28T16:15:01;100014.88;;;10.10;100.00
17230;BME280;8731;50.364;8.958;2023-12-28T16:19:25;100013.91;;;9.99;100.00
17230;BME280;8731;50.364;8.958;2023-12-28T16:24:03;100001.31;;;10.01;100.00
17230;BME280;8731;50.364;8.958;2023-12-28T16:28:28;100004.22;;;9.87;100.00
17230;BME280;8731;50.364;8.958;2023-12-28T16:32:53;99994.34;;;9.90;100.00
17230;BME280;8731;50.364;8.958;2023-12-28T16:37:17;99992.88;;;9.83;100.00
17230;BME280;8731;50.364;8.958;2023-12-28T16:41:40;99992.81;;;9.73;100.00
17230;BME280;8731;50.364;8.958;2023-12-28T16:46:03;99990.53;;;9.76;100.00
17230;BME280;8731;50.364;8.958;2023-12-28T16:50:28;99995.34;;;9.73;100.00
17230;BME280;8731;50.364;8.958;2023-12-28T16:54:52;99984.72;;;9.68;100.00
17230;BME280;8731;50.364;8.958;2023-12-28T16:59:15;99994.75;;;9.75;100.00
17230;BME280;8731;50.364;8.958;2023-12-28T17:03:38;99995.16;;;9.80;100.00
17230;BME280;8731;50.364;8.958;2023-12-28T17:08:03;99988.56;;;9.82;100.00
17230;BME280;8731;50.364;8.958;2023-12-28T17:12:35;99990.06;;;9.80;100.00
17230;BME280;8731;50.364;8.958;2023-12-28T17:16:59;99996.31;;;9.83;100.00
17230;BME280;8731;50.364;8.958;2023-12-28T17:21:29;99995.84;;;9.88;100.00
17230;BME280;8731;50.364;8.958;2023-12-28T17:26:02;99981.75;;;9.72;100.00
17230;BME280;8731;50.364;8.958;2023-12-28T17:30:28;99980.41;;;9.67;100.00
17230;BME280;8731;50.364;8.958;2023-12-28T17:34:53;99988.03;;;9.67;100.00
17230;BME280;8731;50.364;8.958;2023-12-28T17:39:16;99987.78;;;9.56;100.00
17230;BME280;8731;50.364;8.958;2023-12-28T17:43:46;99979.56;;;9.58;100.00
17230;BME280;8731;50.364;8.958;2023-12-28T17:48:17;99984.09;;;9.52;100.00
17230;BME280;8731;50.364;8.958;2023-12-28T17:52:43;99989.72;;;9.58;100.00
17230;BME280;8731;50.364;8.958;2023-12-28T17:57:08;99992.94;;;9.47;100.00
17230;BME280;8731;50.364;8.958;2023-12-28T18:01:33;99996.19;;;9.54;100.00
17230;BME280;8731;50.364;8.958;2023-12-28T18:05:55;99998.19;;;9.67;100.00
17230;BME280;8731;50.364;8.958;2023-12-28T18:10:18;100000.75;;;9.67;100.00
17230;BME280;8731;50.364;8.958;2023-12-28T18:14:40;100004.94;;;9.67;100.00
17230;BME280;8731;50.364;8.958;2023-12-28T18:19:21;100010.75;;;9.66;100.00
17230;BME280;8731;50.364;8.958;2023-12-28T18:23:43;100006.56;;;9.66;100.00
17230;BME280;8731;50.364;8.958;2023-12-28T18:28:06;100008.09;;;9.64;100.00
17230;BME280;8731;50.364;8.958;2023-12-28T18:32:31;100014.66;;;9.62;100.00
17230;BME280;8731;50.364;8.958;2023-12-28T18:36:56;100017.91;;;9.78;100.00
17230;BME280;8731;50.364;8.958;2023-12-28T18:41:19;100012.41;;;9.65;100.00
17230;BME280;8731;50.364;8.958;2023-12-28T18:45:42;100021.53;;;9.72;100.00
17230;BME280;8731;50.364;8.958;2023-12-28T18:50:06;100017.03;;;9.69;100.00
17230;BME280;8731;50.364;8.958;2023-12-28T18:54:31;100013.75;;;9.70;100.00
17230;BME280;8731;50.364;8.958;2023-12-28T18:58:54;100011.03;;;9.77;100.00
17230;BME280;8731;50.364;8.958;2023-12-28T19:03:16;100013.00;;;9.71;100.00
17230;BME280;8731;50.364;8.958;2023-12-28T19:07:39;100025.25;;;9.67;100.00
17230;BME280;8731;50.364;8.958;2023-12-28T19:12:04;100026.13;;;9.76;100.00
17230;BME280;8731;50.364;8.958;2023-12-28T19:16:31;100026.28;;;9.77;100.00
17230;BME280;8731;50.364;8.958;2023-12-28T19:20:55;100024.00;;;9.80;100.00
17230;BME280;8731;50.364;8.958;2023-12-28T19:25:19;100027.16;;;9.78;100.00
17230;BME280;8731;50.364;8.958;2023-12-28T19:29:44;100024.38;;;9.66;100.00
17230;BME280;8731;50.364;8.958;2023-12-28T19:34:07;100028.69;;;9.67;100.00
17230;BME280;8731;50.364;8.958;2023-12-28T19:38:29;100041.66;;;9.79;100.00
17230;BME280;8731;50.364;8.958;2023-12-28T19:42:52;100035.56;;;9.68;100.00
17230;BME280;8731;50.364;8.958;2023-12-28T19:47:17;100024.97;;;9.72;100.00
17230;BME280;8731;50.364;8.958;2023-12-28T19:51:40;100017.06;;;9.61;100.00
17230;BME280;8731;50.364;8.958;2023-12-28T19:56:02;100011.09;;;9.60;100.00
17230;BME280;8731;50.364;8.958;2023-12-28T20:00:26;99997.03;;;9.64;100.00
17230;BME280;8731;50.364;8.958;2023-12-28T20:04:52;99990.66;;;9.50;100.00
17230;BME280;8731;50.364;8.958;2023-12-28T20:09:16;99992.94;;;9.47;100.00
17230;BME280;8731;50.364;8.958;2023-12-28T20:13:39;99985.13;;;9.45;100.00
17230;BME280;8731;50.364;8.958;2023-12-28T20:18:02;99989.94;;;9.42;100.00
17230;BME280;8731;50.364;8.958;2023-12-28T20:22:27;99984.56;;;9.48;100.00
17230;BME280;8731;50.364;8.958;2023-12-28T20:26:50;99990.81;;;9.43;100.00
17230;BME280;8731;50.364;8.958;2023-12-28T20:31:15;99990.69;;;9.41;100.00
17230;BME280;8731;50.364;8.958;2023-12-28T20:35:41;99996.19;;;9.46;100.00
17230;BME280;8731;50.364;8.958;2023-12-28T20:40:07;99993.22;;;9.50;100.00
17230;BME280;8731;50.364;8.958;2023-12-28T20:44:30;99990.38;;;9.47;100.00
17230;BME280;8731;50.364;8.958;2023-12-28T20:48:54;99986.97;;;9.38;100.00
17230;BME280;8731;50.364;8.958;2023-12-28T20:53:16;99988.44;;;9.44;100.00
17230;BME280;8731;50.364;8.958;2023-12-28T20:57:40;99997.69;;;9.44;100.00
17230;BME280;8731;50.364;8.958;2023-12-28T21:02:03;99993.78;;;9.56;100.00
17230;BME280;8731;50.364;8.958;2023-12-28T21:06:26;99990.19;;;9.54;100.00
17230;BME280;8731;50.364;8.958;2023-12-28T21:10:49;99987.78;;;9.56;100.00
17230;BME280;8731;50.364;8.958;2023-12-28T21:15:16;99996.69;;;9.69;100.00
17230;BME280;8731;50.364;8.958;2023-12-28T21:19:38;99997.69;;;9.52;100.00
17230;BME280;8731;50.364;8.958;2023-12-28T21:24:01;99984.66;;;9.58;100.00
17230;BME280;8731;50.364;8.958;2023-12-28T21:28:24;99981.81;;;9.55;100.00
17230;BME280;8731;50.364;8.958;2023-12-28T21:32:48;99972.28;;;9.52;100.00
17230;BME280;8731;50.364;8.958;2023-12-28T21:37:11;99979.94;;;9.35;100.00
17230;BME280;8731;50.364;8.958;2023-12-28T21:41:33;99974.13;;;9.36;100.00
17230;BME280;8731;50.364;8.958;2023-12-28T21:45:55;99979.91;;;9.44;100.00
17230;BME280;8731;50.364;8.958;2023-12-28T21:50:19;99982.81;;;9.30;100.00
17230;BME280;8731;50.364;8.958;2023-12-28T21:54:42;99983.84;;;9.32;100.00
17230;BME280;8731;50.364;8.958;2023-12-28T21:59:06;99980.84;;;9.36;100.00
17230;BME280;8731;50.364;8.958;2023-12-28T22:03:28;99977.56;;;9.37;100.00
17230;BME280;8731;50.364;8.958;2023-12-28T22:07:52;99981.94;;;9.29;100.00
17230;BME280;8731;50.364;8.958;2023-12-28T22:12:14;99970.59;;;9.26;100.00
17230;BME280;8731;50.364;8.958;2023-12-28T22:16:38;99971.16;;;9.32;100.00
17230;BME280;8731;50.364;8.958;2023-12-28T22:21:01;99963.09;;;9.27;100.00
17230;BME280;8731;50.364;8.958;2023-12-28T22:25:27;99989.41;;;9.28;100.00
17230;BME280;8731;50.364;8.958;2023-12-28T22:29:50;99980.25;;;9.38;100.00
17230;BME280;8731;50.364;8.958;2023-12-28T22:34:13;99973.50;;;9.39;100.00
17230;BME280;8731;50.364;8.958;2023-12-28T22:38:36;99967.81;;;9.41;100.00
17230;BME280;8731;50.364;8.958;2023-12-28T22:43:00;99973.78;;;9.42;100.00
17230;BME280;8731;50.364;8.958;2023-12-28T22:47:22;99979.16;;;9.45;100.00
17230;BME280;8731;50.364;8.958;2023-12-28T22:51:46;99974.38;;;9.48;100.00
17230;BME280;8731;50.364;8.958;2023-12-28T22:56:08;99963.31;;;9.47;100.00
17230;BME280;8731;50.364;8.958;2023-12-28T23:00:32;99956.47;;;9.46;100.00
17230;BME280;8731;50.364;8.958;2023-12-28T23:04:55;99948.66;;;9.45;100.00
17230;BME280;8731;50.364;8.958;2023-12-28T23:09:18;99951.78;;;9.51;100.00
17230;BME280;8731;50.364;8.958;2023-12-28T23:13:40;99959.22;;;9.58;100.00
17230;BME280;8731;50.364;8.958;2023-12-28T23:18:05;99955.66;;;9.56;100.00
17230;BME280;8731;50.364;8.958;2023-12-28T23:22:28;99943.41;;;9.52;100.00
17230;BME280;8731;50.364;8.958;2023-12-28T23:26:52;99940.25;;;9.54;100.00
17230;BME280;8731;50.364;8.958;2023-12-28T23:31:15;99947.00;;;9.54;100.00